Nearby METAR Reports

 

LGKZ - Kozani (civ/Army, Greece
Distance from station: ΝΔ 41km
Ενημερώθηκε: 11/07/2024 11:50
Few Clouds
Few Clouds
 Ανεμος από calm
Ανεμος: Απνοια
Θερμοκρασία: 32°C
Σημείο Δρόσου: 8°C
Υγρασία: 22%
Βαρόμετρο: 1018 hPa
Clouds: Few Clouds
Visibility: 10 km
Cloud details: Few Clouds 762 m
2024/07/11 08:50 LGKZ 110850Z 00000KT 9999 FEW025 32/08 Q1018
LGTS - Thessaloniki/Mik, Greece
Distance from station: Α 64km
Ενημερώθηκε: 11/07/2024 11:50
Few Clouds
Few Clouds
 Ανεμος από ΔΒΔ
Ανεμος: ΔΒΔ 13 km/h
Θερμοκρασία: 33°C
Heat Index: 36°C
Σημείο Δρόσου: 21°C
Υγρασία: 49%
Βαρόμετρο: 1013 hPa
Clouds: Few Clouds
Visibility: 10 km
Cloud details: Few Clouds 1067 m
2024/07/11 08:50 LGTS 110850Z 29007KT 9999 FEW035 33/21 Q1013 NOSIG